createdAt,value
2022-10-13T00:00:00.549Z,100.00
2022-10-13T00:01:14.519Z,100.00
2022-10-13T00:02:16.982Z,100.00
2022-10-13T00:03:19.463Z,100.00
2022-10-13T00:04:21.354Z,100.00
2022-10-13T00:05:23.241Z,100.00
2022-10-13T00:06:26.463Z,100.00
2022-10-13T00:07:28.442Z,100.00
2022-10-13T00:08:30.327Z,100.00
2022-10-13T00:09:33.151Z,100.00
2022-10-13T00:10:37.552Z,100.00
2022-10-13T00:11:39.656Z,100.00
2022-10-13T00:12:41.544Z,100.00
2022-10-13T00:13:44.896Z,100.00
2022-10-13T00:14:46.905Z,100.00
2022-10-13T00:15:49.149Z,100.00
2022-10-13T00:16:51.416Z,100.00
2022-10-13T00:17:53.311Z,100.00
2022-10-13T00:18:55.548Z,100.00
2022-10-13T00:19:57.709Z,100.00
2022-10-13T00:21:00.620Z,100.00
2022-10-13T00:22:02.548Z,100.00
2022-10-13T00:23:04.439Z,100.00
2022-10-13T00:24:10.219Z,100.00
2022-10-13T00:25:12.250Z,100.00
2022-10-13T00:26:16.285Z,100.00
2022-10-13T00:27:18.975Z,100.00
2022-10-13T00:28:20.969Z,100.00
2022-10-13T00:29:23.238Z,100.00
2022-10-13T00:30:25.223Z,100.00
2022-10-13T00:31:29.201Z,100.00
2022-10-13T00:32:31.426Z,100.00
2022-10-13T00:33:33.409Z,100.00
2022-10-13T00:34:37.392Z,100.00
2022-10-13T00:35:42.819Z,100.00
2022-10-13T00:36:45.210Z,100.00
2022-10-13T00:37:47.195Z,100.00
2022-10-13T00:38:49.797Z,100.00
2022-10-13T00:39:51.923Z,100.00
2022-10-13T00:40:55.396Z,100.00
2022-10-13T00:41:59.598Z,100.00
2022-10-13T00:43:01.831Z,100.00
2022-10-13T00:44:07.362Z,100.00
2022-10-13T00:45:28.203Z,100.00
2022-10-13T00:46:35.367Z,100.00
2022-10-13T00:47:43.443Z,100.00
2022-10-13T00:48:46.964Z,100.00
2022-10-13T00:49:50.298Z,100.00
2022-10-13T00:50:53.407Z,100.00
2022-10-13T00:51:55.669Z,100.00
2022-10-13T00:53:00.040Z,100.00
2022-10-13T00:54:05.147Z,100.00
2022-10-13T00:55:10.256Z,100.00
2022-10-13T00:56:14.647Z,100.00
2022-10-13T00:57:19.106Z,100.00
2022-10-13T00:58:24.642Z,100.00
2022-10-13T00:59:28.071Z,100.00
2022-10-13T01:00:30.621Z,100.00
2022-10-13T01:01:32.672Z,100.00
2022-10-13T01:02:36.682Z,100.00
2022-10-13T01:03:38.863Z,100.00
2022-10-13T01:04:44.044Z,100.00
2022-10-13T01:05:47.924Z,100.00
2022-10-13T01:06:50.877Z,100.00
2022-10-13T01:07:54.089Z,100.00
2022-10-13T01:08:56.081Z,100.00
2022-10-13T01:09:58.971Z,100.00
2022-10-13T01:11:21.515Z,100.00
2022-10-13T01:14:04.741Z,100.00
2022-10-13T01:15:27.344Z,100.00
2022-10-13T01:16:48.681Z,100.00
2022-10-13T01:17:57.447Z,100.00
2022-10-13T01:19:29.344Z,100.00
2022-10-13T01:20:41.026Z,100.00
2022-10-13T01:21:44.738Z,100.00
2022-10-13T01:22:59.885Z,100.00
2022-10-13T01:24:20.987Z,100.00
2022-10-13T01:25:46.460Z,100.00
2022-10-13T01:27:01.108Z,100.00
2022-10-13T01:28:29.835Z,100.00
2022-10-13T01:29:52.174Z,100.00
2022-10-13T01:31:06.748Z,100.00
2022-10-13T01:32:18.142Z,100.00
2022-10-13T01:33:39.119Z,100.00
2022-10-13T01:34:47.788Z,100.00
2022-10-13T01:36:05.654Z,100.00
2022-10-13T01:37:23.633Z,100.00
2022-10-13T01:38:47.246Z,100.00
2022-10-13T01:40:01.589Z,100.00
2022-10-13T01:41:18.841Z,100.00
2022-10-13T01:42:27.391Z,100.00
2022-10-13T01:43:36.084Z,100.00
2022-10-13T01:44:41.745Z,100.00
2022-10-13T01:45:59.550Z,100.00
2022-10-13T01:47:03.995Z,100.00
2022-10-13T01:48:08.161Z,100.00
2022-10-13T01:49:13.613Z,100.00
2022-10-13T01:50:18.617Z,100.00
2022-10-13T01:51:23.938Z,100.00
2022-10-13T01:52:29.273Z,100.00
2022-10-13T01:53:31.835Z,100.00
2022-10-13T01:54:34.505Z,100.00
2022-10-13T01:55:36.433Z,100.00
2022-10-13T01:56:38.449Z,100.00
2022-10-13T01:57:42.716Z,100.00
2022-10-13T01:58:46.367Z,100.00
2022-10-13T01:59:48.625Z,100.00
2022-10-13T02:02:22.578Z,100.00
2022-10-13T02:03:28.281Z,100.00
2022-10-13T02:04:57.974Z,100.00
2022-10-13T02:06:23.557Z,100.00
2022-10-13T02:07:37.913Z,100.00
2022-10-13T02:10:11.271Z,100.00
2022-10-13T02:11:19.674Z,100.00
2022-10-13T02:12:31.667Z,100.00
2022-10-13T02:13:37.489Z,100.00
2022-10-13T02:14:41.836Z,100.00
2022-10-13T02:15:47.557Z,100.00
2022-10-13T02:16:52.528Z,100.00
2022-10-13T02:17:55.296Z,100.00
2022-10-13T02:18:57.917Z,100.00
2022-10-13T02:19:59.862Z,100.00
2022-10-13T02:21:03.527Z,100.00
2022-10-13T02:22:08.014Z,100.00
2022-10-13T02:23:13.730Z,100.00
2022-10-13T02:24:15.936Z,100.00
2022-10-13T02:25:17.810Z,100.00
2022-10-13T02:26:21.353Z,100.00
2022-10-13T02:27:23.574Z,100.00
2022-10-13T02:28:28.334Z,100.00
2022-10-13T02:29:30.599Z,100.00
2022-10-13T02:30:33.073Z,100.00
2022-10-13T02:31:35.359Z,100.00
2022-10-13T02:32:37.266Z,100.00
2022-10-13T02:33:39.359Z,100.00
2022-10-13T02:34:41.299Z,100.00
2022-10-13T02:35:43.396Z,100.00
2022-10-13T02:36:45.900Z,100.00
2022-10-13T02:37:47.789Z,100.00
2022-10-13T02:38:50.182Z,100.00
2022-10-13T02:39:52.131Z,100.00
2022-10-13T02:40:54.154Z,100.00
2022-10-13T02:41:56.611Z,100.00
2022-10-13T02:42:58.488Z,100.00
2022-10-13T02:44:00.414Z,100.00
2022-10-13T02:45:03.569Z,100.00
2022-10-13T02:46:05.864Z,100.00
2022-10-13T02:47:07.858Z,100.00
2022-10-13T02:48:09.845Z,100.00
2022-10-13T02:49:11.790Z,100.00
2022-10-13T02:50:14.250Z,100.00
2022-10-13T02:51:16.297Z,100.00
2022-10-13T02:52:18.435Z,100.00
2022-10-13T02:53:20.799Z,100.00
2022-10-13T02:54:22.734Z,100.00
2022-10-13T02:55:24.913Z,100.00
2022-10-13T02:56:26.927Z,100.00
2022-10-13T02:57:29.009Z,100.00
2022-10-13T02:58:31.181Z,100.00
2022-10-13T02:59:33.314Z,100.00
2022-10-13T03:00:35.367Z,100.00
2022-10-13T03:01:37.525Z,100.00
2022-10-13T03:02:39.502Z,100.00
2022-10-13T03:03:42.151Z,100.00
2022-10-13T03:04:44.455Z,100.00
2022-10-13T03:05:46.440Z,100.00
2022-10-13T03:06:48.442Z,100.00
2022-10-13T03:07:50.326Z,100.00
2022-10-13T03:08:52.209Z,100.00
2022-10-13T03:09:54.372Z,100.00
2022-10-13T03:10:56.579Z,100.00
2022-10-13T03:11:58.494Z,100.00
2022-10-13T03:13:00.447Z,100.00
2022-10-13T03:14:02.591Z,100.00
2022-10-13T03:15:05.435Z,100.00
2022-10-13T03:16:08.195Z,100.00
2022-10-13T03:17:13.415Z,100.00
2022-10-13T03:18:14.807Z,100.00
2022-10-13T03:19:16.723Z,100.00
2022-10-13T03:20:18.830Z,100.00
2022-10-13T03:21:20.750Z,100.00
2022-10-13T03:22:23.069Z,100.00
2022-10-13T03:23:26.661Z,100.00
2022-10-13T03:24:28.832Z,100.00
2022-10-13T03:25:30.705Z,100.00
2022-10-13T03:26:33.290Z,100.00
2022-10-13T03:27:35.448Z,100.00
2022-10-13T03:28:37.471Z,100.00
2022-10-13T03:29:40.050Z,100.00
2022-10-13T03:30:42.065Z,100.00
2022-10-13T03:31:44.561Z,100.00
2022-10-13T03:32:46.806Z,100.00
2022-10-13T03:33:49.649Z,100.00
2022-10-13T03:34:51.645Z,100.00
2022-10-13T03:35:53.556Z,100.00
2022-10-13T03:36:55.777Z,100.00
2022-10-13T03:37:57.668Z,100.00
2022-10-13T03:38:59.691Z,100.00
2022-10-13T03:40:01.854Z,100.00
2022-10-13T03:41:12.826Z,100.00
2022-10-13T03:42:14.770Z,100.00
2022-10-13T03:43:16.686Z,100.00
2022-10-13T03:44:18.662Z,100.00
2022-10-13T03:45:20.572Z,100.00
2022-10-13T03:46:26.017Z,100.00
2022-10-13T03:47:27.996Z,100.00
2022-10-13T03:48:30.810Z,100.00
2022-10-13T03:49:32.966Z,100.00
2022-10-13T03:50:36.642Z,100.00
2022-10-13T03:51:38.805Z,100.00
2022-10-13T03:52:40.707Z,100.00
2022-10-13T03:53:42.900Z,100.00
2022-10-13T03:54:45.080Z,100.00
2022-10-13T03:55:52.950Z,100.00
2022-10-13T03:56:55.096Z,100.00
2022-10-13T03:57:57.154Z,100.00
2022-10-13T03:59:00.456Z,100.00
2022-10-13T04:00:03.496Z,100.00
2022-10-13T04:01:05.708Z,100.00
2022-10-13T04:02:08.094Z,100.00
2022-10-13T04:03:10.473Z,100.00
2022-10-13T04:04:12.644Z,100.00
2022-10-13T04:05:14.769Z,100.00
2022-10-13T04:06:16.868Z,100.00
2022-10-13T04:07:18.771Z,100.00
2022-10-13T04:08:20.666Z,100.00
2022-10-13T04:09:22.558Z,100.00
2022-10-13T04:10:24.564Z,100.00
2022-10-13T04:11:26.834Z,100.00
2022-10-13T04:12:28.812Z,100.00
2022-10-13T04:13:31.403Z,100.00
2022-10-13T04:14:33.466Z,100.00
2022-10-13T04:15:37.094Z,100.00
2022-10-13T04:16:39.488Z,100.00
2022-10-13T04:17:41.370Z,100.00
2022-10-13T04:18:45.009Z,100.00
2022-10-13T04:19:47.089Z,100.00
2022-10-13T04:20:49.083Z,100.00
2022-10-13T04:21:51.376Z,100.00
2022-10-13T04:22:53.306Z,100.00
2022-10-13T04:23:57.161Z,100.00
2022-10-13T04:24:59.102Z,100.00
2022-10-13T04:26:01.213Z,100.00
2022-10-13T04:27:03.404Z,100.00
2022-10-13T04:28:06.514Z,100.00
2022-10-13T04:29:11.417Z,100.00
2022-10-13T04:30:14.171Z,100.00
2022-10-13T04:31:16.360Z,100.00
2022-10-13T04:32:18.862Z,100.00
2022-10-13T04:33:21.060Z,100.00
2022-10-13T04:34:23.047Z,100.00
2022-10-13T04:35:25.772Z,100.00
2022-10-13T04:36:28.164Z,100.00
2022-10-13T04:37:30.127Z,100.00
2022-10-13T04:38:31.997Z,100.00
2022-10-13T04:39:33.981Z,100.00
2022-10-13T04:40:35.975Z,100.00
2022-10-13T04:41:37.894Z,100.00
2022-10-13T04:42:39.946Z,100.00
2022-10-13T04:43:42.720Z,100.00
2022-10-13T04:44:44.627Z,100.00
2022-10-13T04:45:46.554Z,100.00
2022-10-13T04:46:48.941Z,100.00
2022-10-13T04:47:50.958Z,100.00
2022-10-13T04:48:53.133Z,100.00
2022-10-13T04:49:55.012Z,100.00
2022-10-13T04:51:03.416Z,100.00
2022-10-13T04:52:05.438Z,100.00
2022-10-13T04:53:07.324Z,100.00
2022-10-13T04:54:09.333Z,100.00
2022-10-13T04:55:11.241Z,100.00
2022-10-13T04:56:16.473Z,100.00
2022-10-13T04:57:18.541Z,100.00
2022-10-13T04:58:20.840Z,100.00
2022-10-13T04:59:22.745Z,100.00
2022-10-13T05:00:24.847Z,100.00
2022-10-13T05:01:27.403Z,100.00
2022-10-13T05:02:29.289Z,100.00
2022-10-13T05:03:34.918Z,100.00
2022-10-13T05:04:37.735Z,100.00
2022-10-13T05:05:39.815Z,100.00
2022-10-13T05:07:05.327Z,100.00
2022-10-13T05:07:46.476Z,100.00
2022-10-13T05:08:49.554Z,100.00
2022-10-13T05:09:51.567Z,100.00
2022-10-13T05:10:56.315Z,100.00
2022-10-13T05:11:58.264Z,100.00
2022-10-13T05:13:00.283Z,100.00
2022-10-13T05:14:02.217Z,100.00
2022-10-13T05:15:05.457Z,100.00
2022-10-13T05:16:10.306Z,100.00
2022-10-13T05:17:12.243Z,100.00
2022-10-13T05:18:14.176Z,100.00
2022-10-13T05:19:16.080Z,100.00
2022-10-13T05:20:18.065Z,100.00
2022-10-13T05:21:23.102Z,100.00
2022-10-13T05:22:26.981Z,100.00
2022-10-13T05:23:29.041Z,100.00
2022-10-13T05:24:31.295Z,100.00
2022-10-13T05:25:37.247Z,100.00
2022-10-13T05:26:39.762Z,100.00
2022-10-13T05:27:41.670Z,100.00
2022-10-13T05:28:44.557Z,100.00
2022-10-13T05:29:46.604Z,100.00
2022-10-13T05:30:48.947Z,100.00
2022-10-13T05:31:50.827Z,100.00
2022-10-13T05:32:53.937Z,100.00
2022-10-13T05:33:56.526Z,100.00
2022-10-13T05:34:58.420Z,100.00
2022-10-13T05:36:05.330Z,100.00
2022-10-13T05:37:07.385Z,100.00
2022-10-13T05:38:09.302Z,100.00
2022-10-13T05:39:11.189Z,100.00
2022-10-13T05:40:14.412Z,100.00
2022-10-13T05:41:16.291Z,100.00
2022-10-13T05:42:18.482Z,100.00
2022-10-13T05:43:21.146Z,100.00
2022-10-13T05:44:23.257Z,100.00
2022-10-13T05:45:28.909Z,100.00
2022-10-13T05:46:31.728Z,100.00
2022-10-13T05:47:33.791Z,100.00
2022-10-13T05:48:36.458Z,100.00
2022-10-13T05:49:38.465Z,100.00
2022-10-13T05:50:40.595Z,100.00
2022-10-13T05:51:45.870Z,100.00
2022-10-13T05:52:48.828Z,100.00
2022-10-13T05:53:57.784Z,100.00
2022-10-13T05:55:02.190Z,100.00
2022-10-13T05:56:08.286Z,100.00
2022-10-13T05:57:17.109Z,100.00
2022-10-13T05:58:19.362Z,100.00
2022-10-13T05:59:27.116Z,100.00
2022-10-13T06:00:28.127Z,100.00
2022-10-13T06:01:33.950Z,100.00
2022-10-13T06:02:39.902Z,100.00
2022-10-13T06:03:43.708Z,100.00
2022-10-13T06:04:48.473Z,100.00
2022-10-13T06:05:50.677Z,100.00
2022-10-13T06:06:52.698Z,100.00
2022-10-13T06:07:54.585Z,100.00
2022-10-13T06:08:56.818Z,100.00
2022-10-13T06:09:58.943Z,100.00
2022-10-13T06:11:03.815Z,100.00
2022-10-13T06:12:07.656Z,99.87
2022-10-13T06:13:09.584Z,100.00
2022-10-13T06:14:11.473Z,99.79
2022-10-13T06:15:13.741Z,99.76
2022-10-13T06:16:15.858Z,99.75
2022-10-13T06:17:17.744Z,99.55
2022-10-13T06:18:19.742Z,99.15
2022-10-13T06:19:21.605Z,98.59
2022-10-13T06:20:23.808Z,98.30
2022-10-13T06:21:25.691Z,98.04
2022-10-13T06:22:27.597Z,98.32
2022-10-13T06:23:29.558Z,98.21
2022-10-13T06:24:31.426Z,98.31
2022-10-13T06:25:33.301Z,98.46
2022-10-13T06:26:35.271Z,98.29
2022-10-13T06:27:37.266Z,98.01
2022-10-13T06:28:39.505Z,97.70
2022-10-13T06:29:41.741Z,97.50
2022-10-13T06:30:45.005Z,97.43
2022-10-13T06:31:47.043Z,97.29
2022-10-13T06:32:48.932Z,97.05
2022-10-13T06:33:50.996Z,97.06
2022-10-13T06:34:53.120Z,96.73
2022-10-13T06:35:55.163Z,96.71
2022-10-13T06:36:57.138Z,97.03
2022-10-13T06:37:59.007Z,96.81
2022-10-13T06:39:01.223Z,96.78
2022-10-13T06:40:04.468Z,96.64
2022-10-13T06:41:06.517Z,97.45
2022-10-13T06:42:08.396Z,98.38
2022-10-13T06:43:10.355Z,98.74
2022-10-13T06:44:12.247Z,99.00
2022-10-13T06:45:14.466Z,99.17
2022-10-13T06:46:16.969Z,98.87
2022-10-13T06:47:18.856Z,98.69
2022-10-13T06:48:20.730Z,98.60
2022-10-13T06:49:23.626Z,98.36
2022-10-13T06:50:26.106Z,98.83
2022-10-13T06:51:28.054Z,99.16
2022-10-13T06:52:29.933Z,99.25
2022-10-13T06:53:32.740Z,98.93
2022-10-13T06:54:34.638Z,98.42
2022-10-13T06:55:36.611Z,98.10
2022-10-13T06:56:38.591Z,98.19
2022-10-13T06:57:40.664Z,98.17
2022-10-13T06:58:42.635Z,97.97
2022-10-13T06:59:44.521Z,97.56
2022-10-13T07:00:46.530Z,97.62
2022-10-13T07:01:48.726Z,98.13
2022-10-13T07:02:51.693Z,98.27
2022-10-13T07:03:53.617Z,97.98
2022-10-13T07:04:55.499Z,97.60
2022-10-13T07:06:05.737Z,97.23
2022-10-13T07:07:07.772Z,96.78
2022-10-13T07:08:09.851Z,96.28
2022-10-13T07:09:11.783Z,95.89
2022-10-13T07:10:13.864Z,95.50
2022-10-13T07:11:16.598Z,95.63
2022-10-13T07:12:19.139Z,95.44
2022-10-13T07:14:23.451Z,94.78
2022-10-13T07:15:25.430Z,94.67
2022-10-13T07:16:27.769Z,94.95
2022-10-13T07:17:29.859Z,95.32
2022-10-13T07:18:32.601Z,95.57
2022-10-13T07:19:34.734Z,95.45
2022-10-13T07:20:36.870Z,94.87
2022-10-13T07:21:38.792Z,94.55
2022-10-13T07:22:40.735Z,94.17
2022-10-13T07:23:42.629Z,94.48
2022-10-13T07:24:44.525Z,94.17
2022-10-13T07:25:46.427Z,94.53
2022-10-13T07:26:48.450Z,94.43
2022-10-13T07:27:50.584Z,94.63
2022-10-13T07:28:52.490Z,94.58
2022-10-13T07:29:54.746Z,94.84
2022-10-13T07:30:56.904Z,94.87
2022-10-13T07:31:59.054Z,94.38
2022-10-13T07:33:00.945Z,94.09
2022-10-13T07:34:03.242Z,93.76
2022-10-13T07:35:05.545Z,93.81
2022-10-13T07:36:08.956Z,94.07
2022-10-13T07:37:11.023Z,93.72
2022-10-13T07:38:13.151Z,93.96
2022-10-13T07:39:15.161Z,94.25
2022-10-13T07:40:17.473Z,94.14
2022-10-13T07:41:19.595Z,94.19
2022-10-13T07:42:21.610Z,93.90
2022-10-13T07:43:23.589Z,93.73
2022-10-13T07:44:25.914Z,93.40
2022-10-13T07:45:28.009Z,92.85
2022-10-13T07:46:30.330Z,92.60
2022-10-13T07:47:32.235Z,92.93
2022-10-13T07:48:35.365Z,92.84
2022-10-13T07:49:37.256Z,92.36
2022-10-13T07:50:39.383Z,92.15
2022-10-13T07:51:41.254Z,91.59
2022-10-13T07:52:43.177Z,91.00
2022-10-13T07:53:45.586Z,90.56
2022-10-13T07:54:47.578Z,90.27
2022-10-13T07:55:49.958Z,89.96
2022-10-13T07:56:53.166Z,89.39
2022-10-13T07:57:55.557Z,89.22
2022-10-13T07:58:57.628Z,88.97
2022-10-13T08:00:00.375Z,88.69
2022-10-13T08:01:03.860Z,88.46
2022-10-13T08:02:06.046Z,88.17
2022-10-13T08:03:07.943Z,88.01
2022-10-13T08:04:09.811Z,87.67
2022-10-13T08:05:11.710Z,87.36
2022-10-13T08:06:16.333Z,88.16
2022-10-13T08:07:18.929Z,88.46
2022-10-13T08:08:21.430Z,88.67
2022-10-13T08:09:24.884Z,88.25
2022-10-13T08:10:27.114Z,87.69
2022-10-13T08:11:30.211Z,87.23
2022-10-13T08:12:34.232Z,86.80
2022-10-13T08:13:36.405Z,86.30
2022-10-13T08:14:38.451Z,87.33
2022-10-13T08:15:41.802Z,87.79
2022-10-13T08:16:46.376Z,87.41
2022-10-13T08:17:48.327Z,87.34
2022-10-13T08:18:50.519Z,87.06
2022-10-13T08:19:52.587Z,86.81
2022-10-13T08:21:04.179Z,86.55
2022-10-13T08:22:17.831Z,86.47
2022-10-13T08:23:20.114Z,86.81
2022-10-13T08:24:22.122Z,87.04
2022-10-13T08:25:24.017Z,87.16
2022-10-13T08:26:27.775Z,87.14
2022-10-13T08:27:49.627Z,87.03
2022-10-13T08:28:34.845Z,86.87
2022-10-13T08:29:37.044Z,86.81
2022-10-13T08:30:39.556Z,87.31
2022-10-13T08:31:41.883Z,87.31
2022-10-13T08:32:44.098Z,88.45
2022-10-13T08:33:46.501Z,88.62
2022-10-13T08:34:49.585Z,88.95
2022-10-13T08:35:52.926Z,88.58
2022-10-13T08:36:55.615Z,88.43
2022-10-13T08:37:58.219Z,87.67
2022-10-13T08:39:00.180Z,88.13
2022-10-13T08:40:02.296Z,88.48
2022-10-13T08:41:16.615Z,89.04
2022-10-13T08:42:21.539Z,89.05
2022-10-13T08:43:24.512Z,89.16
2022-10-13T08:45:41.822Z,89.26
2022-10-13T08:46:50.533Z,88.64
2022-10-13T08:48:01.780Z,88.62
2022-10-13T08:49:05.525Z,88.99
2022-10-13T08:50:14.652Z,88.99
2022-10-13T08:51:17.702Z,88.51
2022-10-13T08:52:23.314Z,88.74
2022-10-13T08:53:34.856Z,88.22
2022-10-13T08:54:37.796Z,88.39
2022-10-13T08:55:46.986Z,89.35
2022-10-13T08:56:50.744Z,89.23
2022-10-13T08:57:53.852Z,89.35
2022-10-13T08:58:57.939Z,90.02
2022-10-13T09:00:00.561Z,89.61
2022-10-13T09:01:16.101Z,89.38
2022-10-13T09:02:25.029Z,89.14
2022-10-13T09:03:29.939Z,89.01
2022-10-13T09:04:38.295Z,89.00
2022-10-13T09:05:47.663Z,88.66
2022-10-13T09:06:56.697Z,88.26
2022-10-13T09:07:59.642Z,87.94
2022-10-13T09:09:05.643Z,87.02
2022-10-13T09:10:09.780Z,86.53
2022-10-13T09:11:14.511Z,86.55
2022-10-13T09:12:23.176Z,86.39
2022-10-13T09:13:25.693Z,86.03
2022-10-13T09:14:31.637Z,85.66
2022-10-13T09:15:39.114Z,85.03
2022-10-13T09:16:44.961Z,84.46
2022-10-13T09:17:51.201Z,84.05
2022-10-13T09:18:53.801Z,84.02
2022-10-13T09:20:05.966Z,84.76
2022-10-13T09:21:11.334Z,85.26
2022-10-13T09:22:16.946Z,85.29
2022-10-13T09:23:22.576Z,85.73
2022-10-13T09:24:26.315Z,85.55
2022-10-13T09:25:30.478Z,85.70
2022-10-13T09:26:38.597Z,85.58
2022-10-13T09:27:56.515Z,85.08
2022-10-13T09:29:02.707Z,85.30
2022-10-13T09:30:27.768Z,85.03
2022-10-13T09:32:40.328Z,85.04
2022-10-13T09:33:43.503Z,84.49
2022-10-13T09:34:47.638Z,84.04
2022-10-13T09:36:02.799Z,84.03
2022-10-13T09:37:08.982Z,83.90
2022-10-13T09:38:20.632Z,83.75
2022-10-13T09:39:23.369Z,83.55
2022-10-13T09:40:25.971Z,83.74
2022-10-13T09:41:28.595Z,83.42
2022-10-13T09:42:31.379Z,83.15
2022-10-13T09:43:43.490Z,83.36
2022-10-13T09:44:46.789Z,83.58
2022-10-13T09:45:49.305Z,83.85
2022-10-13T09:46:55.413Z,83.78
2022-10-13T09:48:04.354Z,83.86
2022-10-13T09:49:29.970Z,83.53
2022-10-13T09:50:34.976Z,83.63
2022-10-13T09:51:40.627Z,83.01
2022-10-13T09:52:45.556Z,83.32
2022-10-13T09:53:48.316Z,83.33
2022-10-13T09:54:59.251Z,82.80
2022-10-13T09:56:20.864Z,83.50
2022-10-13T09:57:30.810Z,83.39
2022-10-13T09:58:36.057Z,83.32
2022-10-13T09:59:42.346Z,82.85
2022-10-13T10:00:47.663Z,82.43
2022-10-13T10:01:52.610Z,82.81
2022-10-13T10:04:41.088Z,82.66
2022-10-13T10:05:53.279Z,83.21
2022-10-13T10:06:56.110Z,83.38
2022-10-13T10:09:41.274Z,83.45
2022-10-13T10:10:44.534Z,83.68
2022-10-13T10:11:49.973Z,83.38
2022-10-13T10:12:52.907Z,82.73
2022-10-13T10:13:57.436Z,82.86
2022-10-13T10:15:00.859Z,82.98
2022-10-13T10:16:13.359Z,82.95
2022-10-13T10:17:40.798Z,83.18
2022-10-13T10:18:57.784Z,82.72
2022-10-13T10:20:17.812Z,81.80
2022-10-13T10:21:36.119Z,81.92
2022-10-13T10:23:02.318Z,81.65
2022-10-13T10:24:23.623Z,81.43
2022-10-13T10:25:29.760Z,81.76
2022-10-13T10:26:57.630Z,82.47
2022-10-13T10:28:29.726Z,81.98
2022-10-13T10:29:38.981Z,81.43
2022-10-13T10:30:45.192Z,81.45
2022-10-13T10:31:57.413Z,81.91
2022-10-13T10:33:15.454Z,81.60
2022-10-13T10:36:12.004Z,81.89
2022-10-13T10:37:33.056Z,81.94
2022-10-13T10:38:59.952Z,82.04
2022-10-13T10:40:11.797Z,82.02
2022-10-13T10:41:35.633Z,82.10
2022-10-13T10:42:52.264Z,82.44
2022-10-13T10:44:04.120Z,81.43
2022-10-13T10:46:25.747Z,81.40
2022-10-13T10:47:31.487Z,81.28
2022-10-13T10:48:38.891Z,81.16
2022-10-13T10:49:41.760Z,81.11
2022-10-13T10:50:44.526Z,80.99
2022-10-13T10:51:47.467Z,80.76
2022-10-13T10:53:08.563Z,80.45
2022-10-13T10:54:17.390Z,80.23
2022-10-13T10:55:44.844Z,80.48
2022-10-13T10:56:50.702Z,80.82
2022-10-13T10:58:05.579Z,80.26
2022-10-13T10:59:29.238Z,80.14
2022-10-13T11:02:09.636Z,80.40
2022-10-13T11:03:21.507Z,80.75
2022-10-13T11:04:36.558Z,80.60
2022-10-13T11:06:00.190Z,80.59
2022-10-13T11:07:04.169Z,80.15
2022-10-13T11:08:09.848Z,80.77
2022-10-13T11:09:11.902Z,80.50
2022-10-13T11:10:18.086Z,80.42
2022-10-13T11:11:26.716Z,80.48
2022-10-13T11:12:52.558Z,80.63
2022-10-13T11:14:07.090Z,81.37
2022-10-13T11:15:12.080Z,80.03
2022-10-13T11:16:29.966Z,80.54
2022-10-13T11:17:35.577Z,80.30
2022-10-13T11:19:02.686Z,80.33
2022-10-13T11:20:20.613Z,80.57
2022-10-13T11:21:22.543Z,80.13
2022-10-13T11:22:27.064Z,79.95
2022-10-13T11:23:33.548Z,80.47
2022-10-13T11:24:43.222Z,80.32
2022-10-13T11:25:47.017Z,80.00
2022-10-13T11:26:50.675Z,79.96
2022-10-13T11:27:52.631Z,79.95
2022-10-13T11:28:54.744Z,80.07
2022-10-13T11:29:59.192Z,79.84
2022-10-13T11:31:08.211Z,79.80
2022-10-13T11:32:29.313Z,79.81
2022-10-13T11:33:41.228Z,79.71
2022-10-13T11:34:47.058Z,79.65
2022-10-13T11:35:49.384Z,80.26
2022-10-13T11:36:55.121Z,80.13
2022-10-13T11:38:09.886Z,80.69
2022-10-13T11:39:26.808Z,80.42
2022-10-13T11:40:35.466Z,80.73
2022-10-13T11:41:56.181Z,81.14
2022-10-13T11:43:05.336Z,80.98
2022-10-13T11:44:36.403Z,80.66
2022-10-13T11:45:54.320Z,81.10
2022-10-13T11:47:06.234Z,81.12
2022-10-13T11:48:36.045Z,81.13
2022-10-13T11:49:45.183Z,81.28
2022-10-13T11:51:13.929Z,81.16
2022-10-13T11:52:41.157Z,81.56
2022-10-13T11:54:03.882Z,81.26
2022-10-13T11:55:15.910Z,82.28
2022-10-13T11:56:20.672Z,82.08
2022-10-13T11:57:27.017Z,81.98
2022-10-13T11:58:31.829Z,81.88
2022-10-13T11:59:35.490Z,81.75
2022-10-13T12:00:40.420Z,82.02
2022-10-13T12:01:45.427Z,82.67
2022-10-13T12:02:52.722Z,82.79
2022-10-13T12:03:56.159Z,83.12
2022-10-13T12:05:08.538Z,83.52
2022-10-13T12:06:18.148Z,82.83
2022-10-13T12:07:23.603Z,82.93
2022-10-13T12:08:29.212Z,83.29
2022-10-13T12:09:32.555Z,82.94
2022-10-13T12:10:36.905Z,83.50
2022-10-13T12:11:39.425Z,83.71
2022-10-13T12:13:57.732Z,83.34
2022-10-13T12:15:02.736Z,82.92
2022-10-13T12:16:06.611Z,82.76
2022-10-13T12:17:31.189Z,82.86
2022-10-13T12:18:36.716Z,82.85
2022-10-13T12:19:39.611Z,82.72
2022-10-13T12:20:41.948Z,82.94
2022-10-13T12:21:52.208Z,83.06
2022-10-13T12:22:56.152Z,82.76
2022-10-13T12:24:07.983Z,82.50
2022-10-13T12:25:15.834Z,82.38
2022-10-13T12:26:21.471Z,83.00
2022-10-13T12:27:23.724Z,82.68
2022-10-13T12:28:29.484Z,83.00
2022-10-13T12:29:37.026Z,83.00
2022-10-13T12:30:35.733Z,83.28
2022-10-13T12:31:42.910Z,83.14
2022-10-13T12:32:51.264Z,82.64
2022-10-13T12:33:59.169Z,83.02
2022-10-13T12:35:25.322Z,83.09
2022-10-13T12:36:30.537Z,82.91
2022-10-13T12:37:34.191Z,83.12
2022-10-13T12:38:37.009Z,82.97
2022-10-13T12:39:39.488Z,83.27
2022-10-13T12:40:41.882Z,82.98
2022-10-13T12:41:47.479Z,82.86
2022-10-13T12:42:50.221Z,82.71
2022-10-13T12:43:55.783Z,82.42
2022-10-13T12:45:00.101Z,82.31
2022-10-13T12:46:02.122Z,82.32
2022-10-13T12:47:04.155Z,82.92
2022-10-13T12:48:08.943Z,83.06
2022-10-13T12:49:27.748Z,82.87
2022-10-13T12:50:36.172Z,82.54
2022-10-13T12:51:39.451Z,82.59
2022-10-13T12:52:41.931Z,82.64
2022-10-13T12:53:45.994Z,82.50
2022-10-13T12:54:50.857Z,82.29
2022-10-13T12:55:58.214Z,82.35
2022-10-13T12:57:06.864Z,81.92
2022-10-13T12:58:18.486Z,82.27
2022-10-13T12:59:21.040Z,82.50
2022-10-13T13:00:25.784Z,82.17
2022-10-13T13:01:34.726Z,82.20
2022-10-13T13:02:36.851Z,82.52
2022-10-13T13:03:41.268Z,82.82
2022-10-13T13:04:43.365Z,82.88
2022-10-13T13:05:50.890Z,83.05
2022-10-13T13:06:59.007Z,83.09
2022-10-13T13:08:02.739Z,83.15
2022-10-13T13:09:23.520Z,83.14
2022-10-13T13:10:26.539Z,82.83
2022-10-13T13:11:37.173Z,82.59
2022-10-13T13:12:39.872Z,82.63
2022-10-13T13:13:42.070Z,82.43
2022-10-13T13:14:49.279Z,82.34
2022-10-13T13:15:52.219Z,82.15
2022-10-13T13:17:09.836Z,82.59
2022-10-13T13:18:35.863Z,82.77
2022-10-13T13:19:38.901Z,82.56
2022-10-13T13:20:40.937Z,82.03
2022-10-13T13:21:42.893Z,82.03
2022-10-13T13:22:44.904Z,82.04
2022-10-13T13:23:51.286Z,82.01
2022-10-13T13:24:52.533Z,82.24
2022-10-13T13:26:10.461Z,82.07
2022-10-13T13:27:22.336Z,82.41
2022-10-13T13:28:31.075Z,82.47
2022-10-13T13:29:33.058Z,82.98
2022-10-13T13:30:35.315Z,83.55
2022-10-13T13:31:37.228Z,83.85
2022-10-13T13:32:39.379Z,83.89
2022-10-13T13:33:41.981Z,83.91
2022-10-13T13:34:43.966Z,84.15
2022-10-13T13:35:46.112Z,84.82
2022-10-13T13:36:48.870Z,84.84
2022-10-13T13:37:52.060Z,84.52
2022-10-13T13:38:54.349Z,84.52
2022-10-13T13:39:57.561Z,84.39
2022-10-13T13:41:03.113Z,84.25
2022-10-13T13:42:03.759Z,83.76
2022-10-13T13:43:05.888Z,83.70
2022-10-13T13:44:07.881Z,83.58
2022-10-13T13:45:14.032Z,83.78
2022-10-13T13:46:21.779Z,84.23
2022-10-13T13:47:26.741Z,83.88
2022-10-13T13:48:28.653Z,83.70
2022-10-13T13:49:30.535Z,83.71
2022-10-13T13:50:36.053Z,84.16
2022-10-13T13:51:37.991Z,84.37
2022-10-13T13:52:39.874Z,84.50
2022-10-13T13:53:42.212Z,84.77
2022-10-13T13:54:44.845Z,84.99
2022-10-13T13:55:47.376Z,85.12
2022-10-13T13:56:49.377Z,85.05
2022-10-13T13:57:51.792Z,84.98
2022-10-13T13:58:53.873Z,84.79
2022-10-13T13:59:56.889Z,84.89
2022-10-13T14:00:59.384Z,84.71
2022-10-13T14:02:01.598Z,84.81
2022-10-13T14:03:03.967Z,84.95
2022-10-13T14:04:06.033Z,84.83
2022-10-13T14:05:09.153Z,84.71
2022-10-13T14:06:20.110Z,84.61